sensor_id;sensor_type;location;lat;lon;timestamp;P1;durP1;ratioP1;P2;durP2;ratioP2
57317;SDS011;43157;50.982;18.132;2023-12-29T00:01:45;34.50;;;14.20;;
57317;SDS011;43157;50.982;18.132;2023-12-29T00:04:11;35.80;;;15.50;;
57317;SDS011;43157;50.982;18.132;2023-12-29T00:06:39;40.90;;;16.50;;
57317;SDS011;43157;50.982;18.132;2023-12-29T00:09:05;33.60;;;14.40;;
57317;SDS011;43157;50.982;18.132;2023-12-29T00:11:33;33.70;;;14.00;;
57317;SDS011;43157;50.982;18.132;2023-12-29T00:13:59;33.30;;;13.90;;
57317;SDS011;43157;50.982;18.132;2023-12-29T00:16:26;34.00;;;12.80;;
57317;SDS011;43157;50.982;18.132;2023-12-29T00:18:53;36.10;;;14.90;;
57317;SDS011;43157;50.982;18.132;2023-12-29T00:21:18;31.30;;;13.70;;
57317;SDS011;43157;50.982;18.132;2023-12-29T00:23:44;31.10;;;13.10;;
57317;SDS011;43157;50.982;18.132;2023-12-29T00:26:10;37.00;;;14.20;;
57317;SDS011;43157;50.982;18.132;2023-12-29T00:28:35;39.00;;;15.40;;
57317;SDS011;43157;50.982;18.132;2023-12-29T00:31:05;37.80;;;15.80;;
57317;SDS011;43157;50.982;18.132;2023-12-29T00:33:41;31.80;;;13.10;;
57317;SDS011;43157;50.982;18.132;2023-12-29T00:36:07;37.40;;;14.10;;
57317;SDS011;43157;50.982;18.132;2023-12-29T00:38:34;32.50;;;13.60;;
57317;SDS011;43157;50.982;18.132;2023-12-29T00:40:59;37.50;;;14.90;;
57317;SDS011;43157;50.982;18.132;2023-12-29T00:43:25;35.70;;;13.70;;
57317;SDS011;43157;50.982;18.132;2023-12-29T00:45:50;27.80;;;10.90;;
57317;SDS011;43157;50.982;18.132;2023-12-29T00:48:16;31.90;;;13.70;;
57317;SDS011;43157;50.982;18.132;2023-12-29T00:50:41;29.40;;;13.00;;
57317;SDS011;43157;50.982;18.132;2023-12-29T00:53:07;34.00;;;13.70;;
57317;SDS011;43157;50.982;18.132;2023-12-29T00:55:35;31.50;;;12.80;;
57317;SDS011;43157;50.982;18.132;2023-12-29T00:58:00;27.50;;;11.70;;
57317;SDS011;43157;50.982;18.132;2023-12-29T01:00:26;31.40;;;12.60;;
57317;SDS011;43157;50.982;18.132;2023-12-29T01:02:52;28.40;;;12.70;;
57317;SDS011;43157;50.982;18.132;2023-12-29T01:33:37;25.40;;;10.50;;
57317;SDS011;43157;50.982;18.132;2023-12-29T01:36:03;22.30;;;9.50;;
57317;SDS011;43157;50.982;18.132;2023-12-29T01:38:28;26.90;;;9.60;;
57317;SDS011;43157;50.982;18.132;2023-12-29T01:40:54;24.60;;;8.80;;
57317;SDS011;43157;50.982;18.132;2023-12-29T01:43:19;24.40;;;8.90;;
57317;SDS011;43157;50.982;18.132;2023-12-29T01:45:45;20.90;;;8.70;;
57317;SDS011;43157;50.982;18.132;2023-12-29T01:48:10;19.30;;;8.40;;
57317;SDS011;43157;50.982;18.132;2023-12-29T01:50:36;23.10;;;8.90;;
57317;SDS011;43157;50.982;18.132;2023-12-29T01:53:02;23.30;;;9.20;;
57317;SDS011;43157;50.982;18.132;2023-12-29T01:55:29;22.00;;;8.90;;
57317;SDS011;43157;50.982;18.132;2023-12-29T01:57:55;20.10;;;8.20;;
57317;SDS011;43157;50.982;18.132;2023-12-29T02:00:21;22.00;;;9.00;;
57317;SDS011;43157;50.982;18.132;2023-12-29T02:02:47;20.50;;;8.10;;
57317;SDS011;43157;50.982;18.132;2023-12-29T02:05:13;22.30;;;8.40;;
57317;SDS011;43157;50.982;18.132;2023-12-29T02:07:40;19.70;;;8.00;;
57317;SDS011;43157;50.982;18.132;2023-12-29T02:10:06;20.60;;;7.60;;
57317;SDS011;43157;50.982;18.132;2023-12-29T02:12:33;22.90;;;7.90;;
57317;SDS011;43157;50.982;18.132;2023-12-29T02:15:00;18.50;;;8.00;;
57317;SDS011;43157;50.982;18.132;2023-12-29T02:17:26;20.00;;;8.70;;
57317;SDS011;43157;50.982;18.132;2023-12-29T02:19:55;24.20;;;8.80;;
57317;SDS011;43157;50.982;18.132;2023-12-29T02:22:21;21.40;;;10.20;;
57317;SDS011;43157;50.982;18.132;2023-12-29T02:24:48;21.00;;;10.40;;
57317;SDS011;43157;50.982;18.132;2023-12-29T02:30:11;30.30;;;12.20;;
57317;SDS011;43157;50.982;18.132;2023-12-29T02:32:41;29.20;;;11.60;;
57317;SDS011;43157;50.982;18.132;2023-12-29T02:35:09;25.30;;;10.10;;
57317;SDS011;43157;50.982;18.132;2023-12-29T02:37:36;23.50;;;8.30;;
57317;SDS011;43157;50.982;18.132;2023-12-29T02:40:03;20.40;;;7.80;;
57317;SDS011;43157;50.982;18.132;2023-12-29T02:42:29;17.80;;;7.30;;
57317;SDS011;43157;50.982;18.132;2023-12-29T02:44:54;16.90;;;6.60;;
57317;SDS011;43157;50.982;18.132;2023-12-29T02:47:20;17.50;;;7.00;;
57317;SDS011;43157;50.982;18.132;2023-12-29T02:49:47;18.70;;;7.10;;
57317;SDS011;43157;50.982;18.132;2023-12-29T02:52:15;17.70;;;6.70;;
57317;SDS011;43157;50.982;18.132;2023-12-29T02:54:40;18.40;;;6.50;;
57317;SDS011;43157;50.982;18.132;2023-12-29T02:57:06;16.00;;;6.80;;
57317;SDS011;43157;50.982;18.132;2023-12-29T02:59:31;17.30;;;7.40;;
57317;SDS011;43157;50.982;18.132;2023-12-29T03:01:56;16.40;;;6.70;;
57317;SDS011;43157;50.982;18.132;2023-12-29T03:04:22;17.90;;;7.10;;
57317;SDS011;43157;50.982;18.132;2023-12-29T03:06:47;16.10;;;6.80;;
57317;SDS011;43157;50.982;18.132;2023-12-29T03:09:13;18.30;;;8.10;;
57317;SDS011;43157;50.982;18.132;2023-12-29T03:11:39;20.90;;;9.50;;
57317;SDS011;43157;50.982;18.132;2023-12-29T03:14:04;20.50;;;7.90;;
57317;SDS011;43157;50.982;18.132;2023-12-29T03:16:30;20.40;;;8.40;;
57317;SDS011;43157;50.982;18.132;2023-12-29T03:18:56;22.20;;;9.10;;
57317;SDS011;43157;50.982;18.132;2023-12-29T03:21:21;21.60;;;8.90;;
57317;SDS011;43157;50.982;18.132;2023-12-29T03:23:47;21.90;;;8.00;;
57317;SDS011;43157;50.982;18.132;2023-12-29T03:26:12;22.30;;;10.10;;
57317;SDS011;43157;50.982;18.132;2023-12-29T03:28:38;19.70;;;8.80;;
57317;SDS011;43157;50.982;18.132;2023-12-29T03:31:04;24.90;;;8.60;;
57317;SDS011;43157;50.982;18.132;2023-12-29T03:33:30;19.50;;;7.70;;
57317;SDS011;43157;50.982;18.132;2023-12-29T03:35:56;16.60;;;6.90;;
57317;SDS011;43157;50.982;18.132;2023-12-29T03:38:21;20.00;;;7.70;;
57317;SDS011;43157;50.982;18.132;2023-12-29T03:40:47;17.50;;;7.40;;
57317;SDS011;43157;50.982;18.132;2023-12-29T03:43:12;17.40;;;6.80;;
57317;SDS011;43157;50.982;18.132;2023-12-29T03:45:38;20.00;;;7.20;;
57317;SDS011;43157;50.982;18.132;2023-12-29T03:48:04;17.00;;;6.80;;
57317;SDS011;43157;50.982;18.132;2023-12-29T03:50:30;15.50;;;6.80;;
57317;SDS011;43157;50.982;18.132;2023-12-29T03:52:55;16.40;;;6.80;;
57317;SDS011;43157;50.982;18.132;2023-12-29T03:55:21;18.10;;;7.30;;
57317;SDS011;43157;50.982;18.132;2023-12-29T03:57:47;17.50;;;7.40;;
57317;SDS011;43157;50.982;18.132;2023-12-29T04:00:13;19.40;;;7.80;;
57317;SDS011;43157;50.982;18.132;2023-12-29T04:02:39;18.80;;;7.50;;
57317;SDS011;43157;50.982;18.132;2023-12-29T04:05:06;16.60;;;6.90;;
57317;SDS011;43157;50.982;18.132;2023-12-29T04:07:33;17.40;;;8.00;;
57317;SDS011;43157;50.982;18.132;2023-12-29T04:09:58;18.20;;;7.20;;
57317;SDS011;43157;50.982;18.132;2023-12-29T04:12:24;17.30;;;7.30;;
57317;SDS011;43157;50.982;18.132;2023-12-29T04:14:49;18.00;;;7.50;;
57317;SDS011;43157;50.982;18.132;2023-12-29T04:17:15;17.30;;;6.30;;
57317;SDS011;43157;50.982;18.132;2023-12-29T04:19:40;15.00;;;6.20;;
57317;SDS011;43157;50.982;18.132;2023-12-29T04:22:06;15.80;;;7.00;;
57317;SDS011;43157;50.982;18.132;2023-12-29T04:24:33;17.60;;;7.50;;
57317;SDS011;43157;50.982;18.132;2023-12-29T04:26:59;19.40;;;7.30;;
57317;SDS011;43157;50.982;18.132;2023-12-29T04:29:24;19.60;;;7.40;;
57317;SDS011;43157;50.982;18.132;2023-12-29T04:31:50;18.90;;;7.20;;
57317;SDS011;43157;50.982;18.132;2023-12-29T04:34:16;17.00;;;6.80;;
57317;SDS011;43157;50.982;18.132;2023-12-29T04:36:41;16.40;;;6.70;;
57317;SDS011;43157;50.982;18.132;2023-12-29T04:39:07;14.30;;;5.80;;
57317;SDS011;43157;50.982;18.132;2023-12-29T04:41:34;16.30;;;5.90;;
57317;SDS011;43157;50.982;18.132;2023-12-29T04:44:00;16.70;;;5.70;;
57317;SDS011;43157;50.982;18.132;2023-12-29T04:46:26;13.70;;;5.60;;
57317;SDS011;43157;50.982;18.132;2023-12-29T04:48:51;19.00;;;7.60;;
57317;SDS011;43157;50.982;18.132;2023-12-29T04:51:17;19.40;;;7.00;;
57317;SDS011;43157;50.982;18.132;2023-12-29T04:53:42;17.00;;;6.00;;
57317;SDS011;43157;50.982;18.132;2023-12-29T04:56:08;21.10;;;8.00;;
57317;SDS011;43157;50.982;18.132;2023-12-29T04:58:34;17.60;;;6.40;;
57317;SDS011;43157;50.982;18.132;2023-12-29T05:01:00;18.20;;;6.50;;
57317;SDS011;43157;50.982;18.132;2023-12-29T05:03:25;17.00;;;5.40;;
57317;SDS011;43157;50.982;18.132;2023-12-29T05:05:51;16.40;;;5.90;;
57317;SDS011;43157;50.982;18.132;2023-12-29T05:08:16;15.30;;;5.70;;
57317;SDS011;43157;50.982;18.132;2023-12-29T05:10:42;14.70;;;5.60;;
57317;SDS011;43157;50.982;18.132;2023-12-29T05:13:07;15.90;;;5.80;;
57317;SDS011;43157;50.982;18.132;2023-12-29T05:15:33;16.30;;;6.50;;
57317;SDS011;43157;50.982;18.132;2023-12-29T05:17:59;16.20;;;5.80;;
57317;SDS011;43157;50.982;18.132;2023-12-29T05:20:24;16.80;;;6.10;;
57317;SDS011;43157;50.982;18.132;2023-12-29T05:22:50;16.60;;;5.10;;
57317;SDS011;43157;50.982;18.132;2023-12-29T05:25:15;15.60;;;6.20;;
57317;SDS011;43157;50.982;18.132;2023-12-29T05:27:40;17.10;;;6.00;;
57317;SDS011;43157;50.982;18.132;2023-12-29T05:30:06;13.80;;;5.50;;
57317;SDS011;43157;50.982;18.132;2023-12-29T05:32:32;14.80;;;6.40;;
57317;SDS011;43157;50.982;18.132;2023-12-29T05:34:57;13.40;;;5.30;;
57317;SDS011;43157;50.982;18.132;2023-12-29T05:37:23;15.40;;;5.80;;
57317;SDS011;43157;50.982;18.132;2023-12-29T05:39:49;17.90;;;7.50;;
57317;SDS011;43157;50.982;18.132;2023-12-29T05:42:14;15.40;;;6.60;;
57317;SDS011;43157;50.982;18.132;2023-12-29T05:44:40;16.20;;;6.30;;
57317;SDS011;43157;50.982;18.132;2023-12-29T05:47:05;16.00;;;7.00;;
57317;SDS011;43157;50.982;18.132;2023-12-29T05:49:31;24.00;;;8.50;;
57317;SDS011;43157;50.982;18.132;2023-12-29T05:52:03;16.50;;;6.60;;
57317;SDS011;43157;50.982;18.132;2023-12-29T05:54:29;17.90;;;7.30;;
57317;SDS011;43157;50.982;18.132;2023-12-29T05:56:55;18.60;;;6.60;;
57317;SDS011;43157;50.982;18.132;2023-12-29T05:59:21;17.50;;;6.90;;
57317;SDS011;43157;50.982;18.132;2023-12-29T06:01:46;19.50;;;6.90;;
57317;SDS011;43157;50.982;18.132;2023-12-29T06:04:12;16.70;;;6.20;;
57317;SDS011;43157;50.982;18.132;2023-12-29T06:06:37;17.50;;;6.90;;
57317;SDS011;43157;50.982;18.132;2023-12-29T06:09:03;16.80;;;6.20;;
57317;SDS011;43157;50.982;18.132;2023-12-29T06:11:28;17.60;;;7.00;;
57317;SDS011;43157;50.982;18.132;2023-12-29T06:13:54;17.00;;;7.30;;
57317;SDS011;43157;50.982;18.132;2023-12-29T06:16:20;20.50;;;7.40;;
57317;SDS011;43157;50.982;18.132;2023-12-29T06:18:47;20.10;;;7.30;;
57317;SDS011;43157;50.982;18.132;2023-12-29T06:21:16;17.20;;;6.30;;
57317;SDS011;43157;50.982;18.132;2023-12-29T06:23:43;20.00;;;8.70;;
57317;SDS011;43157;50.982;18.132;2023-12-29T06:26:19;20.00;;;7.90;;
57317;SDS011;43157;50.982;18.132;2023-12-29T06:28:46;19.60;;;8.10;;
57317;SDS011;43157;50.982;18.132;2023-12-29T06:31:12;23.90;;;11.00;;
57317;SDS011;43157;50.982;18.132;2023-12-29T06:33:40;22.10;;;9.60;;
57317;SDS011;43157;50.982;18.132;2023-12-29T06:36:07;18.80;;;7.10;;
57317;SDS011;43157;50.982;18.132;2023-12-29T06:38:33;20.10;;;8.80;;
57317;SDS011;43157;50.982;18.132;2023-12-29T06:41:02;18.70;;;7.90;;
57317;SDS011;43157;50.982;18.132;2023-12-29T06:43:29;21.10;;;7.80;;
57317;SDS011;43157;50.982;18.132;2023-12-29T06:45:55;18.10;;;8.30;;
57317;SDS011;43157;50.982;18.132;2023-12-29T06:48:21;21.50;;;8.60;;
57317;SDS011;43157;50.982;18.132;2023-12-29T06:50:47;22.60;;;9.90;;
57317;SDS011;43157;50.982;18.132;2023-12-29T06:53:13;20.40;;;8.90;;
57317;SDS011;43157;50.982;18.132;2023-12-29T06:55:38;22.40;;;9.20;;
57317;SDS011;43157;50.982;18.132;2023-12-29T06:58:04;24.20;;;11.20;;
57317;SDS011;43157;50.982;18.132;2023-12-29T07:00:30;25.20;;;9.90;;
57317;SDS011;43157;50.982;18.132;2023-12-29T07:02:55;26.70;;;10.10;;
57317;SDS011;43157;50.982;18.132;2023-12-29T07:05:21;22.00;;;10.50;;
57317;SDS011;43157;50.982;18.132;2023-12-29T07:07:46;29.70;;;10.90;;
57317;SDS011;43157;50.982;18.132;2023-12-29T07:10:12;22.80;;;11.10;;
57317;SDS011;43157;50.982;18.132;2023-12-29T07:12:40;21.50;;;8.90;;
57317;SDS011;43157;50.982;18.132;2023-12-29T07:15:08;24.90;;;10.50;;
57317;SDS011;43157;50.982;18.132;2023-12-29T07:17:34;20.00;;;8.00;;
57317;SDS011;43157;50.982;18.132;2023-12-29T07:20:00;19.80;;;8.80;;
57317;SDS011;43157;50.982;18.132;2023-12-29T07:22:26;23.60;;;10.00;;
57317;SDS011;43157;50.982;18.132;2023-12-29T07:24:52;27.40;;;11.60;;
57317;SDS011;43157;50.982;18.132;2023-12-29T07:27:18;33.00;;;13.20;;
57317;SDS011;43157;50.982;18.132;2023-12-29T07:29:44;44.60;;;18.90;;
57317;SDS011;43157;50.982;18.132;2023-12-29T07:44:12;39.50;;;15.30;;
57317;SDS011;43157;50.982;18.132;2023-12-29T07:46:38;34.60;;;13.80;;
57317;SDS011;43157;50.982;18.132;2023-12-29T07:49:05;28.90;;;11.40;;
57317;SDS011;43157;50.982;18.132;2023-12-29T07:51:31;34.50;;;12.20;;
57317;SDS011;43157;50.982;18.132;2023-12-29T07:53:56;27.60;;;10.90;;
57317;SDS011;43157;50.982;18.132;2023-12-29T07:56:22;32.60;;;11.00;;
57317;SDS011;43157;50.982;18.132;2023-12-29T07:58:48;40.50;;;12.60;;
57317;SDS011;43157;50.982;18.132;2023-12-29T08:01:13;30.50;;;10.50;;
57317;SDS011;43157;50.982;18.132;2023-12-29T08:03:39;38.50;;;13.00;;
57317;SDS011;43157;50.982;18.132;2023-12-29T08:06:05;33.50;;;11.70;;
57317;SDS011;43157;50.982;18.132;2023-12-29T08:08:30;28.60;;;10.70;;
57317;SDS011;43157;50.982;18.132;2023-12-29T08:10:56;22.40;;;8.50;;
57317;SDS011;43157;50.982;18.132;2023-12-29T08:13:21;28.40;;;9.80;;
57317;SDS011;43157;50.982;18.132;2023-12-29T08:15:47;27.40;;;9.50;;
57317;SDS011;43157;50.982;18.132;2023-12-29T08:18:13;26.60;;;9.60;;
57317;SDS011;43157;50.982;18.132;2023-12-29T08:20:38;31.30;;;11.30;;
57317;SDS011;43157;50.982;18.132;2023-12-29T08:23:04;43.60;;;15.40;;
57317;SDS011;43157;50.982;18.132;2023-12-29T08:25:30;41.00;;;14.60;;
57317;SDS011;43157;50.982;18.132;2023-12-29T08:27:56;31.10;;;13.10;;
57317;SDS011;43157;50.982;18.132;2023-12-29T08:30:21;33.70;;;15.00;;
57317;SDS011;43157;50.982;18.132;2023-12-29T08:32:47;29.40;;;11.80;;
57317;SDS011;43157;50.982;18.132;2023-12-29T08:35:13;31.20;;;12.70;;
57317;SDS011;43157;50.982;18.132;2023-12-29T08:37:38;32.20;;;12.60;;
57317;SDS011;43157;50.982;18.132;2023-12-29T08:40:04;30.00;;;12.50;;
57317;SDS011;43157;50.982;18.132;2023-12-29T08:42:30;27.20;;;11.70;;
57317;SDS011;43157;50.982;18.132;2023-12-29T08:44:55;28.40;;;10.60;;
57317;SDS011;43157;50.982;18.132;2023-12-29T08:47:23;23.20;;;10.30;;
57317;SDS011;43157;50.982;18.132;2023-12-29T08:49:49;19.50;;;7.50;;
57317;SDS011;43157;50.982;18.132;2023-12-29T08:52:14;19.40;;;6.90;;
57317;SDS011;43157;50.982;18.132;2023-12-29T08:54:40;15.50;;;6.30;;
57317;SDS011;43157;50.982;18.132;2023-12-29T08:57:06;16.30;;;6.40;;
57317;SDS011;43157;50.982;18.132;2023-12-29T08:59:32;15.30;;;6.40;;
57317;SDS011;43157;50.982;18.132;2023-12-29T09:01:58;16.00;;;6.20;;
57317;SDS011;43157;50.982;18.132;2023-12-29T09:04:25;13.80;;;5.30;;
57317;SDS011;43157;50.982;18.132;2023-12-29T09:06:51;16.40;;;5.70;;
57317;SDS011;43157;50.982;18.132;2023-12-29T09:09:16;13.80;;;5.70;;
57317;SDS011;43157;50.982;18.132;2023-12-29T09:11:42;13.40;;;4.90;;
57317;SDS011;43157;50.982;18.132;2023-12-29T09:14:07;14.40;;;5.30;;
57317;SDS011;43157;50.982;18.132;2023-12-29T09:16:35;13.80;;;6.00;;
57317;SDS011;43157;50.982;18.132;2023-12-29T09:19:00;13.10;;;5.40;;
57317;SDS011;43157;50.982;18.132;2023-12-29T09:21:26;12.10;;;4.60;;
57317;SDS011;43157;50.982;18.132;2023-12-29T09:23:51;13.40;;;5.30;;
57317;SDS011;43157;50.982;18.132;2023-12-29T09:26:18;12.50;;;4.90;;
57317;SDS011;43157;50.982;18.132;2023-12-29T09:28:44;13.00;;;4.50;;
57317;SDS011;43157;50.982;18.132;2023-12-29T09:31:10;11.40;;;4.70;;
57317;SDS011;43157;50.982;18.132;2023-12-29T09:33:35;12.20;;;4.90;;
57317;SDS011;43157;50.982;18.132;2023-12-29T09:36:02;11.20;;;4.50;;
57317;SDS011;43157;50.982;18.132;2023-12-29T09:38:28;11.80;;;4.20;;
57317;SDS011;43157;50.982;18.132;2023-12-29T09:40:55;10.50;;;4.20;;
57317;SDS011;43157;50.982;18.132;2023-12-29T09:43:27;10.50;;;4.40;;
57317;SDS011;43157;50.982;18.132;2023-12-29T09:45:54;11.40;;;4.60;;
57317;SDS011;43157;50.982;18.132;2023-12-29T09:48:20;11.50;;;4.00;;
57317;SDS011;43157;50.982;18.132;2023-12-29T09:50:49;11.20;;;4.00;;
57317;SDS011;43157;50.982;18.132;2023-12-29T09:53:15;9.40;;;3.80;;
57317;SDS011;43157;50.982;18.132;2023-12-29T09:55:41;11.80;;;4.00;;
57317;SDS011;43157;50.982;18.132;2023-12-29T09:58:07;10.60;;;4.00;;
57317;SDS011;43157;50.982;18.132;2023-12-29T10:00:34;11.70;;;4.00;;
57317;SDS011;43157;50.982;18.132;2023-12-29T10:03:00;10.10;;;3.70;;
57317;SDS011;43157;50.982;18.132;2023-12-29T10:05:26;10.80;;;3.40;;
57317;SDS011;43157;50.982;18.132;2023-12-29T10:07:52;11.00;;;3.60;;
57317;SDS011;43157;50.982;18.132;2023-12-29T10:10:18;10.80;;;3.20;;
57317;SDS011;43157;50.982;18.132;2023-12-29T10:12:48;10.50;;;3.70;;
57317;SDS011;43157;50.982;18.132;2023-12-29T10:20:42;11.10;;;3.80;;
57317;SDS011;43157;50.982;18.132;2023-12-29T10:23:18;10.70;;;4.00;;
57317;SDS011;43157;50.982;18.132;2023-12-29T10:25:45;11.10;;;3.80;;
57317;SDS011;43157;50.982;18.132;2023-12-29T10:28:13;10.40;;;3.50;;
57317;SDS011;43157;50.982;18.132;2023-12-29T10:30:39;11.70;;;3.70;;
57317;SDS011;43157;50.982;18.132;2023-12-29T10:33:05;9.50;;;3.30;;
57317;SDS011;43157;50.982;18.132;2023-12-29T10:35:31;9.90;;;3.60;;
57317;SDS011;43157;50.982;18.132;2023-12-29T10:38:21;11.50;;;3.90;;
57317;SDS011;43157;50.982;18.132;2023-12-29T10:40:45;9.30;;;3.20;;
57317;SDS011;43157;50.982;18.132;2023-12-29T10:43:11;11.10;;;3.80;;
57317;SDS011;43157;50.982;18.132;2023-12-29T10:45:37;12.10;;;4.00;;
57317;SDS011;43157;50.982;18.132;2023-12-29T10:48:03;11.00;;;3.90;;
57317;SDS011;43157;50.982;18.132;2023-12-29T10:50:29;10.90;;;3.40;;
57317;SDS011;43157;50.982;18.132;2023-12-29T10:53:10;12.90;;;4.50;;
57317;SDS011;43157;50.982;18.132;2023-12-29T10:55:37;12.00;;;4.60;;
57317;SDS011;43157;50.982;18.132;2023-12-29T10:58:02;11.20;;;4.10;;
57317;SDS011;43157;50.982;18.132;2023-12-29T11:00:31;11.70;;;3.50;;
57317;SDS011;43157;50.982;18.132;2023-12-29T11:02:58;9.90;;;3.10;;
57317;SDS011;43157;50.982;18.132;2023-12-29T11:05:25;8.60;;;2.60;;
57317;SDS011;43157;50.982;18.132;2023-12-29T11:07:52;9.80;;;2.90;;
57317;SDS011;43157;50.982;18.132;2023-12-29T11:10:20;8.20;;;2.60;;
57317;SDS011;43157;50.982;18.132;2023-12-29T11:12:47;8.20;;;2.60;;
57317;SDS011;43157;50.982;18.132;2023-12-29T11:15:14;7.30;;;1.80;;
57317;SDS011;43157;50.982;18.132;2023-12-29T11:17:41;7.80;;;2.50;;
57317;SDS011;43157;50.982;18.132;2023-12-29T11:20:16;7.10;;;2.40;;
57317;SDS011;43157;50.982;18.132;2023-12-29T11:22:42;7.70;;;2.10;;
57317;SDS011;43157;50.982;18.132;2023-12-29T11:25:09;7.50;;;1.90;;
57317;SDS011;43157;50.982;18.132;2023-12-29T11:27:35;10.70;;;3.90;;
57317;SDS011;43157;50.982;18.132;2023-12-29T11:30:02;12.70;;;5.30;;
57317;SDS011;43157;50.982;18.132;2023-12-29T11:32:37;10.30;;;3.80;;
57317;SDS011;43157;50.982;18.132;2023-12-29T11:40:23;5.90;;;1.80;;
57317;SDS011;43157;50.982;18.132;2023-12-29T11:42:57;8.20;;;1.70;;
57317;SDS011;43157;50.982;18.132;2023-12-29T11:45:30;5.50;;;1.50;;
57317;SDS011;43157;50.982;18.132;2023-12-29T11:48:01;7.60;;;1.40;;
57317;SDS011;43157;50.982;18.132;2023-12-29T11:50:33;7.10;;;1.60;;
57317;SDS011;43157;50.982;18.132;2023-12-29T11:53:02;6.30;;;1.50;;
57317;SDS011;43157;50.982;18.132;2023-12-29T11:55:35;8.20;;;1.90;;
57317;SDS011;43157;50.982;18.132;2023-12-29T11:58:02;8.30;;;2.20;;
57317;SDS011;43157;50.982;18.132;2023-12-29T12:00:47;8.50;;;2.50;;
57317;SDS011;43157;50.982;18.132;2023-12-29T12:03:13;6.80;;;1.70;;
57317;SDS011;43157;50.982;18.132;2023-12-29T12:05:47;5.90;;;1.50;;
57317;SDS011;43157;50.982;18.132;2023-12-29T12:08:26;7.80;;;2.20;;
57317;SDS011;43157;50.982;18.132;2023-12-29T12:13:54;35.40;;;11.30;;
57317;SDS011;43157;50.982;18.132;2023-12-29T12:19:12;68.40;;;24.00;;
57317;SDS011;43157;50.982;18.132;2023-12-29T12:21:38;27.10;;;10.50;;
57317;SDS011;43157;50.982;18.132;2023-12-29T12:24:04;20.60;;;9.40;;
57317;SDS011;43157;50.982;18.132;2023-12-29T12:26:30;16.30;;;6.70;;
57317;SDS011;43157;50.982;18.132;2023-12-29T12:28:56;9.20;;;3.30;;
57317;SDS011;43157;50.982;18.132;2023-12-29T12:31:22;8.80;;;2.60;;
57317;SDS011;43157;50.982;18.132;2023-12-29T12:33:54;4.60;;;1.40;;
57317;SDS011;43157;50.982;18.132;2023-12-29T12:36:21;6.00;;;1.80;;
57317;SDS011;43157;50.982;18.132;2023-12-29T12:38:53;7.00;;;1.90;;
57317;SDS011;43157;50.982;18.132;2023-12-29T12:41:23;5.30;;;1.50;;
57317;SDS011;43157;50.982;18.132;2023-12-29T12:44:10;6.60;;;2.20;;
57317;SDS011;43157;50.982;18.132;2023-12-29T12:46:39;6.90;;;1.60;;
57317;SDS011;43157;50.982;18.132;2023-12-29T12:49:28;7.50;;;2.00;;
57317;SDS011;43157;50.982;18.132;2023-12-29T12:51:54;6.90;;;2.00;;
57317;SDS011;43157;50.982;18.132;2023-12-29T12:54:20;8.40;;;2.40;;
57317;SDS011;43157;50.982;18.132;2023-12-29T12:56:46;8.70;;;2.40;;
57317;SDS011;43157;50.982;18.132;2023-12-29T12:59:12;6.80;;;2.00;;
57317;SDS011;43157;50.982;18.132;2023-12-29T13:01:37;8.00;;;2.10;;
57317;SDS011;43157;50.982;18.132;2023-12-29T13:04:04;6.80;;;2.00;;
57317;SDS011;43157;50.982;18.132;2023-12-29T13:06:31;7.80;;;2.40;;
57317;SDS011;43157;50.982;18.132;2023-12-29T13:08:58;9.10;;;2.60;;
57317;SDS011;43157;50.982;18.132;2023-12-29T13:11:24;9.40;;;2.70;;
57317;SDS011;43157;50.982;18.132;2023-12-29T13:13:51;9.50;;;2.50;;
57317;SDS011;43157;50.982;18.132;2023-12-29T13:16:31;8.30;;;2.50;;
57317;SDS011;43157;50.982;18.132;2023-12-29T13:19:14;8.80;;;2.10;;
57317;SDS011;43157;50.982;18.132;2023-12-29T13:21:40;7.80;;;2.20;;
57317;SDS011;43157;50.982;18.132;2023-12-29T13:24:07;9.10;;;2.10;;
57317;SDS011;43157;50.982;18.132;2023-12-29T13:26:32;6.60;;;2.00;;
57317;SDS011;43157;50.982;18.132;2023-12-29T13:28:59;6.50;;;2.00;;
57317;SDS011;43157;50.982;18.132;2023-12-29T13:31:24;6.70;;;2.20;;
57317;SDS011;43157;50.982;18.132;2023-12-29T13:33:57;7.70;;;2.40;;
57317;SDS011;43157;50.982;18.132;2023-12-29T13:36:39;8.10;;;2.10;;
57317;SDS011;43157;50.982;18.132;2023-12-29T13:39:07;6.60;;;1.60;;
57317;SDS011;43157;50.982;18.132;2023-12-29T13:41:35;4.00;;;1.40;;
57317;SDS011;43157;50.982;18.132;2023-12-29T13:44:01;7.00;;;2.10;;
57317;SDS011;43157;50.982;18.132;2023-12-29T13:46:28;6.20;;;1.80;;
57317;SDS011;43157;50.982;18.132;2023-12-29T13:48:54;9.20;;;2.30;;
57317;SDS011;43157;50.982;18.132;2023-12-29T13:51:26;7.00;;;1.90;;
57317;SDS011;43157;50.982;18.132;2023-12-29T13:54:01;8.00;;;2.10;;
57317;SDS011;43157;50.982;18.132;2023-12-29T13:56:28;9.10;;;2.20;;
57317;SDS011;43157;50.982;18.132;2023-12-29T13:58:54;9.00;;;2.90;;
57317;SDS011;43157;50.982;18.132;2023-12-29T14:01:19;9.50;;;3.30;;
57317;SDS011;43157;50.982;18.132;2023-12-29T14:03:55;10.60;;;3.20;;
57317;SDS011;43157;50.982;18.132;2023-12-29T14:06:27;9.80;;;2.60;;
57317;SDS011;43157;50.982;18.132;2023-12-29T14:08:55;13.80;;;4.30;;
57317;SDS011;43157;50.982;18.132;2023-12-29T14:11:20;15.30;;;5.80;;
57317;SDS011;43157;50.982;18.132;2023-12-29T14:13:46;13.10;;;3.90;;
57317;SDS011;43157;50.982;18.132;2023-12-29T14:16:15;10.30;;;4.40;;
57317;SDS011;43157;50.982;18.132;2023-12-29T14:21:24;9.60;;;3.00;;
57317;SDS011;43157;50.982;18.132;2023-12-29T14:24:07;10.10;;;3.40;;
57317;SDS011;43157;50.982;18.132;2023-12-29T14:26:34;9.80;;;3.00;;
57317;SDS011;43157;50.982;18.132;2023-12-29T14:29:03;10.80;;;3.00;;
57317;SDS011;43157;50.982;18.132;2023-12-29T14:31:37;11.10;;;3.30;;
57317;SDS011;43157;50.982;18.132;2023-12-29T14:34:04;15.10;;;4.00;;
57317;SDS011;43157;50.982;18.132;2023-12-29T14:36:31;10.20;;;2.60;;
57317;SDS011;43157;50.982;18.132;2023-12-29T14:38:57;10.20;;;3.20;;
57317;SDS011;43157;50.982;18.132;2023-12-29T14:41:23;11.00;;;3.00;;
57317;SDS011;43157;50.982;18.132;2023-12-29T14:43:49;12.40;;;3.20;;
57317;SDS011;43157;50.982;18.132;2023-12-29T14:46:16;12.90;;;2.90;;
57317;SDS011;43157;50.982;18.132;2023-12-29T14:48:41;7.60;;;2.20;;
57317;SDS011;43157;50.982;18.132;2023-12-29T14:51:07;8.50;;;2.30;;
57317;SDS011;43157;50.982;18.132;2023-12-29T14:53:33;11.30;;;2.70;;
57317;SDS011;43157;50.982;18.132;2023-12-29T14:55:59;11.40;;;3.00;;
57317;SDS011;43157;50.982;18.132;2023-12-29T14:58:25;9.90;;;3.20;;
57317;SDS011;43157;50.982;18.132;2023-12-29T15:00:51;11.30;;;3.20;;
57317;SDS011;43157;50.982;18.132;2023-12-29T15:03:16;9.50;;;2.70;;
57317;SDS011;43157;50.982;18.132;2023-12-29T15:05:45;10.10;;;3.50;;
57317;SDS011;43157;50.982;18.132;2023-12-29T15:08:11;10.00;;;2.70;;
57317;SDS011;43157;50.982;18.132;2023-12-29T15:10:37;10.00;;;3.20;;
57317;SDS011;43157;50.982;18.132;2023-12-29T15:13:03;9.70;;;3.20;;
57317;SDS011;43157;50.982;18.132;2023-12-29T15:15:30;11.20;;;3.90;;
57317;SDS011;43157;50.982;18.132;2023-12-29T15:17:56;11.10;;;3.90;;
57317;SDS011;43157;50.982;18.132;2023-12-29T15:20:22;9.10;;;2.90;;
57317;SDS011;43157;50.982;18.132;2023-12-29T15:22:47;8.90;;;2.00;;